Skip Navigation LinksHome page > Weather > Current weather Skip Navigation Links

Current Weather

Ithaca Tompkins Regional, Ithaca, N.Y.

For information only: do not use for flight planning or navigation.
Latest weather
Observation time Friday, March 23, 2018 2:56 AM EDT
Local time Friday, March 23, 2018 3:09 AM EDT
Flight conditions Visual Meteorological Conditions
Wind direction Northwest (320°)
Wind speed 10 mph
Visibility 10 mi.
Sky condition
Ceiling unlimited
Sky clear
Temperature 27°F
Dewpoint 21°F
Altimeter 30.05 in.Hg
Derived measurements
Relative humidity 78%
Wind chill 17°F
Density altitude -1177 ft.
Sea-level pressure 30.08 in.Hg
Fully automated report.
Automated weather observing station with precipitation discriminator.
METAR KITH 230656Z AUTO 32009KT 10SM CLR M03/M06 A3005 RMK AO2 SLP187 T10281061


Location code

InnerDrive.Weather 4.0.6615.0 Release CLR 4.0.30319.42000
Copyright ©2018 Inner Drive Technology. All rights reserved. Portions Copyright ©1986-2018 David Braverman.

Find weather

Site navigation

Skip Navigation Links

Place info

Page info

PayPal - The safer, easier way to pay online!

Return home.

Copyright ©2018 Inner Drive Technology. Purveyors of fine, hand-crafted computer software. Page printed 2018-03-23T07:09:55 UTC.